Time;durP1;ratioP1;P1;durP2;ratioP2;P2;SDS_P1;SDS_P2;PMS_P1;PMS_P2;Temp;Humidity;BMP_temperature;BMP_pressure;BME280_temperature;BME280_humidity;BME280_pressure;Samples;Min_cycle;Max_cycle;Signal;HPM_P1;HPM_P2
2023/01/09 22:14:26;;;;;;;17.42;4.70;;;12.90;78.90;;;;;;6304028;22;20022;-74
2023/01/09 22:16:52;;;;;;;25.98;6.10;;;12.90;78.70;;;;;;6307496;22;20012;-73
2023/01/09 22:19:17;;;;;;;21.75;5.82;;;12.90;79.00;;;;;;6307716;22;20060;-74
2023/01/09 22:21:43;;;;;;;24.00;6.00;;;12.90;79.10;;;;;;6280715;22;20007;-75
2023/01/09 22:24:14;;;;;;;23.23;4.85;;;12.90;79.20;;;;;;6313091;22;20013;-75
2023/01/09 22:26:39;;;;;;;27.42;5.10;;;12.90;79.10;;;;;;6281969;22;20053;-74
2023/01/09 22:29:05;;;;;;;23.55;5.10;;;12.90;79.40;;;;;;6280246;22;20023;-73
2023/01/09 22:31:34;;;;;;;22.55;4.82;;;12.90;79.30;;;;;;6279517;22;20007;-74
2023/01/09 22:34:01;;;;;;;22.98;5.32;;;12.80;79.60;;;;;;6307000;22;20010;-75
2023/01/09 22:36:29;;;;;;;24.63;5.47;;;12.80;79.30;;;;;;6307279;22;19996;-74
2023/01/09 22:38:56;;;;;;;21.23;5.63;;;12.80;79.60;;;;;;6279598;22;20007;-75
2023/01/09 22:41:23;;;;;;;23.13;5.35;;;12.80;79.40;;;;;;6279796;22;19999;-75
2023/01/09 22:43:49;;;;;;;29.80;6.72;;;12.80;79.40;;;;;;6306931;22;20003;-74
2023/01/09 22:46:15;;;;;;;27.45;6.90;;;12.70;79.60;;;;;;6280019;22;20439;-73
2023/01/09 22:48:41;;;;;;;24.20;6.40;;;12.70;79.60;;;;;;6279858;22;20012;-75
2023/01/09 22:51:10;;;;;;;29.80;6.90;;;12.80;79.90;;;;;;6306611;22;20007;-74
2023/01/09 22:53:36;;;;;;;26.42;6.00;;;12.80;79.80;;;;;;6279906;22;20011;-74
2023/01/09 22:56:04;;;;;;;32.17;6.70;;;12.80;80.10;;;;;;6279942;22;20030;-74
2023/01/09 22:58:30;;;;;;;25.27;6.15;;;12.80;80.40;;;;;;6307322;22;19999;-74
2023/01/09 23:00:56;;;;;;;32.22;7.20;;;12.80;80.30;;;;;;6307260;22;20048;-73
2023/01/09 23:03:22;;;;;;;26.00;6.80;;;12.80;80.60;;;;;;6279678;22;20316;-74
2023/01/09 23:05:57;;;;;;;33.88;7.85;;;12.80;81.10;;;;;;6307009;22;19995;-74
2023/01/09 23:08:23;;;;;;;30.02;5.50;;;12.80;81.30;;;;;;6307154;22;20012;-75
2023/01/09 23:10:49;;;;;;;22.55;6.55;;;12.80;81.60;;;;;;6307166;22;20447;-76
2023/01/09 23:13:15;;;;;;;30.60;7.18;;;12.70;81.50;;;;;;6279468;22;20104;-73
2023/01/09 23:15:40;;;;;;;19.92;6.70;;;12.70;81.70;;;;;;6306974;22;20016;-74
2023/01/09 23:18:06;;;;;;;28.20;6.32;;;12.70;81.90;;;;;;6279998;22;20011;-74
2023/01/09 23:20:32;;;;;;;26.80;6.68;;;12.70;82.10;;;;;;6279968;22;20347;-74
2023/01/09 23:22:58;;;;;;;17.42;5.72;;;12.70;82.10;;;;;;6307169;22;20030;-75
2023/01/09 23:25:24;;;;;;;29.80;8.35;;;12.70;82.30;;;;;;6307087;22;19996;-74
2023/01/09 23:27:49;;;;;;;28.45;6.90;;;12.70;82.40;;;;;;6307056;22;19999;-74
2023/01/09 23:30:15;;;;;;;29.63;6.75;;;12.70;82.40;;;;;;6279835;22;20014;-73
2023/01/09 23:32:42;;;;;;;22.65;6.53;;;12.60;82.40;;;;;;6308267;22;19999;-74
2023/01/09 23:35:08;;;;;;;26.25;7.63;;;12.70;82.80;;;;;;6329878;22;19980;-74
2023/01/09 23:37:34;;;;;;;28.45;7.50;;;12.60;82.30;;;;;;6303306;22;20011;-73
2023/01/09 23:39:59;;;;;;;27.60;7.93;;;12.60;82.50;;;;;;6308750;22;20070;-74
2023/01/09 23:43:25;;;;;;;28.98;8.23;;;12.60;82.40;;;;;;6280788;22;20034;-75
2023/01/09 23:45:21;;;;;;;24.00;6.65;;;12.50;82.60;;;;;;6283746;22;20010;-74
2023/01/09 23:47:47;;;;;;;20.80;6.20;;;12.60;82.90;;;;;;6281959;22;20064;-73
2023/01/09 23:50:13;;;;;;;32.67;6.72;;;12.50;82.30;;;;;;6282594;22;20094;-75
2023/01/09 23:52:39;;;;;;;23.83;5.85;;;12.50;81.90;;;;;;6309815;22;20485;-74
2023/01/09 23:55:05;;;;;;;22.15;6.30;;;12.50;81.90;;;;;;6308583;22;20075;-74
2023/01/09 23:57:31;;;;;;;23.83;6.97;;;12.50;81.70;;;;;;6309019;22;20074;-74
2023/01/09 23:59:57;;;;;;;28.15;6.78;;;12.60;81.80;;;;;;6282026;22;20061;-74
